createdAt,value
2019-04-09T00:02:04.937Z,43.85
2019-04-09T00:04:33.592Z,43.35
2019-04-09T00:07:01.884Z,43.99
2019-04-09T00:09:30.544Z,43.45
2019-04-09T00:12:00.341Z,43.86
2019-04-09T00:14:29.030Z,43.73
2019-04-09T00:16:57.628Z,43.95
2019-04-09T00:19:26.238Z,43.82
2019-04-09T00:21:54.916Z,45.71
2019-04-09T00:24:23.521Z,46.34
2019-04-09T00:26:55.661Z,44.61
2019-04-09T00:29:22.801Z,43.58
2019-04-09T00:31:52.337Z,44.13
2019-04-09T00:34:21.835Z,43.77
2019-04-09T00:36:50.610Z,44.18
2019-04-09T00:39:19.223Z,45.10
2019-04-09T00:41:48.494Z,44.97
2019-04-09T00:44:17.095Z,44.18
2019-04-09T00:46:47.569Z,44.90
2019-04-09T00:49:16.997Z,44.45
2019-04-09T00:51:45.711Z,43.45
2019-04-09T00:54:14.918Z,44.98
2019-04-09T00:56:55.715Z,44.40
2019-04-09T00:59:13.887Z,44.24
2019-04-09T01:01:44.241Z,45.08
2019-04-09T01:04:13.292Z,44.08
2019-04-09T01:06:41.879Z,45.21
2019-04-09T01:09:12.793Z,44.99
2019-04-09T01:11:41.575Z,44.68
2019-04-09T01:14:11.145Z,45.08
2019-04-09T01:16:40.212Z,45.41
2019-04-09T01:19:16.265Z,45.43
2019-04-09T01:21:39.262Z,44.13
2019-04-09T01:24:07.859Z,45.15
2019-04-09T01:26:49.223Z,43.98
2019-04-09T01:29:40.994Z,44.85
2019-04-09T01:32:27.068Z,45.74
2019-04-09T01:35:01.399Z,45.25
2019-04-09T01:37:37.301Z,45.28
2019-04-09T01:40:21.552Z,43.95
2019-04-09T01:43:07.724Z,45.55
2019-04-09T01:45:54.347Z,44.55
2019-04-09T01:48:44.820Z,45.06
2019-04-09T01:51:22.493Z,44.90
2019-04-09T01:54:16.375Z,44.37
2019-04-09T01:57:01.758Z,45.26
2019-04-09T01:59:38.656Z,44.22
2019-04-09T02:02:27.891Z,45.19
2019-04-09T02:05:06.938Z,45.40
2019-04-09T02:08:13.465Z,45.80
2019-04-09T02:10:49.734Z,45.48
2019-04-09T02:13:28.726Z,46.45
2019-04-09T02:16:12.811Z,45.73
2019-04-09T02:18:54.392Z,46.43
2019-04-09T02:21:37.663Z,46.20
2019-04-09T02:24:12.426Z,44.79
2019-04-09T02:26:55.355Z,44.79
2019-04-09T02:29:38.933Z,45.49
2019-04-09T02:32:26.183Z,44.69
2019-04-09T02:35:16.986Z,45.04
2019-04-09T02:38:03.986Z,45.68
2019-04-09T02:41:01.155Z,45.26
2019-04-09T02:43:54.958Z,46.44
2019-04-09T02:46:42.900Z,45.91
2019-04-09T02:49:33.745Z,45.54
2019-04-09T02:52:30.359Z,45.68
2019-04-09T02:55:22.746Z,44.76
2019-04-09T02:58:10.360Z,45.47
2019-04-09T03:01:10.979Z,46.07
2019-04-09T03:03:58.681Z,46.82
2019-04-09T03:06:46.318Z,46.29
2019-04-09T03:09:26.679Z,46.46
2019-04-09T03:12:05.740Z,45.64
2019-04-09T03:14:51.015Z,45.33
2019-04-09T03:17:28.225Z,46.46
2019-04-09T03:20:12.085Z,45.18
2019-04-09T03:23:00.294Z,45.22
2019-04-09T03:25:46.605Z,46.69
2019-04-09T03:28:23.119Z,45.43
2019-04-09T03:31:11.358Z,45.39
2019-04-09T03:33:57.255Z,45.34
2019-04-09T03:36:54.550Z,44.50
2019-04-09T03:39:31.688Z,45.05
2019-04-09T03:42:18.398Z,44.46
2019-04-09T03:45:00.165Z,46.12
2019-04-09T03:47:36.823Z,46.08
2019-04-09T03:50:40.876Z,46.17
2019-04-09T03:53:28.611Z,45.63
2019-04-09T03:56:18.066Z,45.67
2019-04-09T03:59:02.442Z,44.75
2019-04-09T04:01:39.032Z,45.34
2019-04-09T04:04:13.068Z,45.01
2019-04-09T04:06:52.653Z,45.41
2019-04-09T04:09:52.540Z,45.27
2019-04-09T04:12:40.169Z,45.46
2019-04-09T04:15:24.514Z,45.79
2019-04-09T04:18:19.202Z,46.13
2019-04-09T04:20:58.184Z,45.68
2019-04-09T04:23:39.721Z,45.20
2019-04-09T04:26:34.107Z,45.21
2019-04-09T04:29:29.402Z,47.68
2019-04-09T04:32:17.378Z,48.52
2019-04-09T04:35:08.529Z,48.37
2019-04-09T04:37:53.794Z,47.86
2019-04-09T04:40:41.470Z,47.85
2019-04-09T04:43:27.794Z,47.47
2019-04-09T04:46:06.944Z,47.36
2019-04-09T04:48:44.167Z,47.36
2019-04-09T04:51:35.060Z,48.99
2019-04-09T04:54:17.269Z,48.13
2019-04-09T04:56:52.325Z,48.25
2019-04-09T04:59:56.180Z,47.36
2019-04-09T05:02:33.415Z,47.91
2019-04-09T05:05:06.602Z,47.91
2019-04-09T05:07:48.089Z,47.71
2019-04-09T05:10:35.620Z,47.18
2019-04-09T05:13:24.816Z,47.47
2019-04-09T05:16:22.060Z,47.63
2019-04-09T05:19:06.270Z,48.31
2019-04-09T05:21:52.564Z,47.91
2019-04-09T05:24:38.902Z,49.16
2019-04-09T05:27:21.071Z,47.76
2019-04-09T05:30:08.680Z,47.98
2019-04-09T05:32:59.335Z,47.82
2019-04-09T05:35:37.350Z,48.25
2019-04-09T05:38:21.734Z,47.40
2019-04-09T05:41:02.097Z,47.09
2019-04-09T05:43:48.455Z,47.32
2019-04-09T05:46:23.628Z,46.88
2019-04-09T05:49:00.297Z,48.14
2019-04-09T05:51:35.369Z,47.34
2019-04-09T05:54:19.716Z,47.69
2019-04-09T05:57:07.415Z,48.56
2019-04-09T05:59:53.382Z,48.16
2019-04-09T06:02:53.559Z,46.21
2019-04-09T06:05:36.572Z,46.51
2019-04-09T06:08:40.199Z,45.83
2019-04-09T06:11:09.607Z,46.16
2019-04-09T06:13:38.128Z,44.63
2019-04-09T06:16:07.732Z,46.53
2019-04-09T06:18:36.601Z,45.14
2019-04-09T06:21:05.913Z,45.04
2019-04-09T06:23:36.293Z,45.44
2019-04-09T06:26:06.994Z,45.02
2019-04-09T06:28:36.505Z,44.65
2019-04-09T06:31:06.197Z,44.09
2019-04-09T06:34:08.941Z,43.45
2019-04-09T06:36:50.014Z,43.45
2019-04-09T06:39:36.775Z,41.52
2019-04-09T06:42:32.320Z,41.52
2019-04-09T06:45:06.217Z,41.00
2019-04-09T06:48:02.848Z,39.97
2019-04-09T06:50:53.498Z,38.20
2019-04-09T06:53:31.189Z,38.32
2019-04-09T06:56:13.557Z,38.59
2019-04-09T06:59:05.014Z,38.29
2019-04-09T07:01:49.040Z,35.99
2019-04-09T07:04:39.787Z,35.91
2019-04-09T07:07:19.898Z,35.59
2019-04-09T07:09:57.947Z,36.01
2019-04-09T07:12:40.872Z,34.99
2019-04-09T07:15:35.559Z,33.64
2019-04-09T07:18:41.522Z,35.09
2019-04-09T07:21:34.160Z,32.50
2019-04-09T07:24:20.189Z,34.21
2019-04-09T07:26:58.075Z,31.61
2019-04-09T07:29:51.427Z,32.05
2019-04-09T07:32:23.609Z,31.77
2019-04-09T07:35:09.843Z,31.74
2019-04-09T07:37:54.302Z,32.53
2019-04-09T07:40:42.079Z,32.36
2019-04-09T07:43:36.264Z,29.71
2019-04-09T07:46:20.331Z,30.07
2019-04-09T07:48:58.539Z,29.26
2019-04-09T07:51:45.837Z,29.50
2019-04-09T07:54:21.490Z,28.10
2019-04-09T07:57:00.194Z,28.62
2019-04-09T07:59:43.232Z,32.40
2019-04-09T08:02:22.596Z,31.55
2019-04-09T08:04:58.448Z,30.53
2019-04-09T08:07:48.049Z,30.24
2019-04-09T08:10:26.238Z,30.72
2019-04-09T08:13:21.773Z,31.68
2019-04-09T08:16:08.732Z,31.52
2019-04-09T08:18:45.569Z,30.55
2019-04-09T08:21:34.096Z,30.02
2019-04-09T08:24:21.915Z,30.91
2019-04-09T08:27:10.028Z,32.53
2019-04-09T08:30:16.970Z,30.87
2019-04-09T08:32:42.984Z,29.45
2019-04-09T08:35:27.016Z,29.28
2019-04-09T08:38:09.950Z,30.22
2019-04-09T08:40:50.774Z,30.05
2019-04-09T08:43:37.051Z,30.66
2019-04-09T08:46:15.714Z,29.96
2019-04-09T08:48:51.655Z,29.33
2019-04-09T08:51:39.203Z,28.54
2019-04-09T08:54:28.350Z,28.00
2019-04-09T08:57:02.009Z,28.62
2019-04-09T08:59:53.149Z,29.81
2019-04-09T09:02:50.382Z,29.01
2019-04-09T09:05:53.797Z,30.22
2019-04-09T09:08:35.745Z,27.87
2019-04-09T09:11:11.752Z,28.15
2019-04-09T09:13:46.442Z,27.42
2019-04-09T09:16:36.884Z,26.77
2019-04-09T09:19:35.154Z,26.29
2019-04-09T09:22:19.704Z,25.55
2019-04-09T09:25:06.127Z,25.74
2019-04-09T09:28:01.860Z,26.28
2019-04-09T09:31:11.748Z,25.72
2019-04-09T09:33:57.425Z,25.48
2019-04-09T09:36:40.563Z,24.12
2019-04-09T09:39:19.091Z,27.02
2019-04-09T09:41:57.407Z,28.67
2019-04-09T09:44:45.051Z,28.58
2019-04-09T09:47:48.989Z,30.37
2019-04-09T09:50:39.972Z,31.17
2019-04-09T09:53:25.538Z,31.67
2019-04-09T09:56:09.135Z,33.47
2019-04-09T09:58:48.619Z,33.97
2019-04-09T10:01:33.266Z,31.54
2019-04-09T10:04:16.818Z,32.54
2019-04-09T10:07:01.539Z,30.21
2019-04-09T10:09:44.499Z,31.75
2019-04-09T10:12:40.838Z,30.46
2019-04-09T10:15:27.443Z,32.18
2019-04-09T10:18:13.551Z,32.22
2019-04-09T10:21:01.209Z,32.10
2019-04-09T10:23:44.188Z,32.73
2019-04-09T10:26:27.781Z,32.31
2019-04-09T10:29:15.828Z,33.71
2019-04-09T10:32:11.240Z,33.11
2019-04-09T10:35:05.785Z,33.65
2019-04-09T10:37:37.189Z,32.49
2019-04-09T10:40:23.691Z,32.43
2019-04-09T10:43:02.206Z,32.53
2019-04-09T10:45:49.117Z,31.55
2019-04-09T10:48:32.925Z,30.76
2019-04-09T10:51:19.634Z,30.76
2019-04-09T10:54:08.283Z,31.26
2019-04-09T10:56:58.146Z,31.83
2019-04-09T10:59:35.098Z,31.85
2019-04-09T11:02:26.855Z,30.25
2019-04-09T11:05:24.209Z,29.06
2019-04-09T11:08:15.105Z,28.54
2019-04-09T11:11:16.532Z,28.95
2019-04-09T11:14:04.309Z,30.34
2019-04-09T11:16:48.620Z,29.17
2019-04-09T11:19:43.269Z,27.87
2019-04-09T11:22:26.025Z,27.30
2019-04-09T11:25:33.763Z,25.94
2019-04-09T11:28:19.368Z,27.76
2019-04-09T11:31:06.228Z,26.70
2019-04-09T11:33:47.471Z,27.06
2019-04-09T11:36:47.590Z,26.88
2019-04-09T11:39:41.477Z,25.87
2019-04-09T11:42:31.779Z,24.23
2019-04-09T11:45:11.389Z,25.94
2019-04-09T11:47:57.859Z,25.43
2019-04-09T11:50:45.393Z,26.00
2019-04-09T11:53:21.897Z,25.28
2019-04-09T11:56:25.012Z,24.67
2019-04-09T11:59:17.251Z,24.22
2019-04-09T12:02:05.137Z,24.47
2019-04-09T12:04:49.150Z,24.24
2019-04-09T12:07:40.026Z,24.69
2019-04-09T12:10:26.134Z,25.00
2019-04-09T12:13:14.045Z,26.85
2019-04-09T12:15:59.932Z,24.69
2019-04-09T12:18:46.643Z,26.26
2019-04-09T12:21:29.531Z,27.99
2019-04-09T12:24:17.429Z,28.10
2019-04-09T12:27:06.676Z,28.55
2019-04-09T12:30:07.022Z,28.48
2019-04-09T12:32:44.748Z,29.54
2019-04-09T12:35:21.207Z,29.38
2019-04-09T12:38:12.434Z,28.75
2019-04-09T12:41:06.154Z,29.18
2019-04-09T12:43:53.903Z,30.44
2019-04-09T12:46:33.355Z,30.06
2019-04-09T12:49:29.879Z,29.38
2019-04-09T12:52:18.239Z,31.17
2019-04-09T12:55:06.492Z,28.89
2019-04-09T12:57:41.946Z,29.12
2019-04-09T13:00:48.519Z,29.94
2019-04-09T13:03:36.188Z,30.27
2019-04-09T13:06:23.249Z,30.58
2019-04-09T13:09:00.271Z,31.21
2019-04-09T13:11:38.316Z,31.58
2019-04-09T13:14:24.379Z,31.23
2019-04-09T13:17:10.062Z,30.32
2019-04-09T13:19:51.415Z,30.39
2019-04-09T13:22:30.082Z,31.03
2019-04-09T13:25:03.297Z,30.93
2019-04-09T13:27:59.760Z,31.29
2019-04-09T13:30:44.101Z,31.16
2019-04-09T13:33:40.744Z,32.31
2019-04-09T13:36:31.096Z,32.75
2019-04-09T13:39:12.027Z,32.64
2019-04-09T13:42:00.484Z,32.59
2019-04-09T13:44:39.586Z,32.23
2019-04-09T13:47:13.163Z,32.22
2019-04-09T13:50:00.167Z,32.18
2019-04-09T13:52:38.248Z,33.43
2019-04-09T13:55:08.467Z,33.89
2019-04-09T13:57:40.074Z,32.85
2019-04-09T14:00:12.504Z,34.71
2019-04-09T14:03:21.925Z,33.63
2019-04-09T14:05:36.488Z,33.67
2019-04-09T14:08:05.155Z,34.61
2019-04-09T14:10:46.059Z,36.04
2019-04-09T14:13:04.314Z,35.92
2019-04-09T14:15:34.248Z,37.02
2019-04-09T14:18:04.030Z,34.31
2019-04-09T14:20:33.692Z,34.78
2019-04-09T14:23:02.416Z,33.47
2019-04-09T14:25:31.769Z,32.42
2019-04-09T14:28:00.338Z,34.85
2019-04-09T14:30:29.018Z,34.57
2019-04-09T14:33:03.571Z,35.03
2019-04-09T14:35:27.991Z,33.63
2019-04-09T14:37:57.553Z,34.41
2019-04-09T14:40:26.198Z,35.00
2019-04-09T14:42:55.012Z,34.16
2019-04-09T14:45:24.603Z,34.43
2019-04-09T14:47:53.286Z,33.02
2019-04-09T14:50:22.060Z,33.60
2019-04-09T14:52:57.400Z,33.70
2019-04-09T14:55:21.456Z,36.03
2019-04-09T14:57:50.098Z,33.78
2019-04-09T15:00:20.630Z,34.69
2019-04-09T15:02:49.649Z,34.75
2019-04-09T15:05:18.546Z,35.77
2019-04-09T15:07:48.124Z,35.25
2019-04-09T15:10:17.708Z,36.29
2019-04-09T15:12:46.768Z,35.74
2019-04-09T15:15:16.021Z,37.42
2019-04-09T15:17:44.631Z,37.13
2019-04-09T15:20:13.570Z,36.51
2019-04-09T15:22:43.044Z,35.54
2019-04-09T15:25:11.846Z,35.02
2019-04-09T15:27:40.489Z,36.61
2019-04-09T15:30:10.616Z,37.03
2019-04-09T15:32:39.706Z,36.95
2019-04-09T15:35:09.317Z,37.56
2019-04-09T15:37:37.951Z,35.77
2019-04-09T15:40:07.197Z,37.23
2019-04-09T15:42:35.807Z,39.07
2019-04-09T15:45:04.789Z,37.63
2019-04-09T15:47:33.716Z,35.65
2019-04-09T15:50:04.964Z,34.70
2019-04-09T15:52:33.236Z,36.02
2019-04-09T15:55:01.830Z,37.05
2019-04-09T15:57:30.431Z,37.98
2019-04-09T15:59:59.514Z,37.47
2019-04-09T16:02:28.159Z,37.13
2019-04-09T16:04:56.823Z,36.66
2019-04-09T16:07:26.250Z,39.09
2019-04-09T16:09:56.093Z,37.62
2019-04-09T16:12:24.843Z,38.15
2019-04-09T16:14:54.608Z,37.74
2019-04-09T16:17:23.523Z,39.33
2019-04-09T16:19:53.068Z,37.76
2019-04-09T16:22:22.525Z,39.12
2019-04-09T16:24:51.157Z,38.09
2019-04-09T16:27:19.863Z,37.15
2019-04-09T16:29:48.613Z,38.05
2019-04-09T16:32:17.534Z,38.88
2019-04-09T16:34:46.328Z,37.65
2019-04-09T16:37:16.972Z,37.42
2019-04-09T16:39:46.300Z,38.56
2019-04-09T16:42:27.340Z,40.43
2019-04-09T16:44:56.489Z,39.42
2019-04-09T16:47:15.864Z,39.34
2019-04-09T16:49:45.678Z,38.81
2019-04-09T16:52:14.317Z,39.68
2019-04-09T16:54:43.139Z,39.00
2019-04-09T16:57:12.902Z,38.66
2019-04-09T16:59:42.137Z,38.48
2019-04-09T17:02:10.830Z,39.36
2019-04-09T17:04:39.703Z,39.26
2019-04-09T17:07:09.353Z,39.91
2019-04-09T17:09:39.825Z,38.87
2019-04-09T17:12:10.421Z,39.63
2019-04-09T17:14:38.975Z,38.57
2019-04-09T17:17:07.659Z,40.00
2019-04-09T17:19:36.286Z,39.74
2019-04-09T17:22:05.463Z,41.31
2019-04-09T17:24:34.938Z,42.84
2019-04-09T17:27:04.521Z,40.43
2019-04-09T17:29:33.150Z,40.55
2019-04-09T17:32:01.814Z,39.43
2019-04-09T17:34:34.152Z,39.86
2019-04-09T17:37:01.124Z,40.73
2019-04-09T17:39:30.339Z,40.25
2019-04-09T17:42:06.627Z,40.67
2019-04-09T17:44:29.299Z,41.14
2019-04-09T17:46:57.922Z,40.18
2019-04-09T17:49:26.538Z,40.50
2019-04-09T17:51:55.519Z,41.65
2019-04-09T17:54:24.152Z,43.35
2019-04-09T17:56:52.988Z,43.11
2019-04-09T17:59:21.612Z,43.79
2019-04-09T18:01:50.225Z,43.40
2019-04-09T18:04:18.883Z,46.18
2019-04-09T18:06:47.626Z,44.25
2019-04-09T18:09:16.595Z,44.31
2019-04-09T18:11:45.246Z,46.09
2019-04-09T18:14:13.834Z,45.58
2019-04-09T18:16:42.674Z,42.21
2019-04-09T18:19:11.245Z,43.59
2019-04-09T18:21:40.912Z,42.27
2019-04-09T18:24:09.568Z,42.35
2019-04-09T18:26:38.920Z,41.94
2019-04-09T18:29:07.539Z,40.98
2019-04-09T18:31:36.735Z,42.93
2019-04-09T18:34:07.012Z,42.67
2019-04-09T18:36:36.660Z,42.16
2019-04-09T18:39:07.571Z,45.70
2019-04-09T18:41:36.724Z,42.13
2019-04-09T18:44:06.504Z,42.16
2019-04-09T18:46:35.221Z,43.09
2019-04-09T18:49:05.302Z,42.63
2019-04-09T18:51:34.074Z,42.47
2019-04-09T18:54:03.167Z,40.85
2019-04-09T18:56:31.780Z,41.52
2019-04-09T18:59:00.379Z,43.02
2019-04-09T19:01:29.016Z,44.13
2019-04-09T19:04:07.779Z,42.15
2019-04-09T19:06:28.350Z,43.81
2019-04-09T19:08:57.591Z,43.97
2019-04-09T19:11:26.244Z,43.24
2019-04-09T19:13:55.544Z,42.06
2019-04-09T19:16:24.244Z,43.06
2019-04-09T19:18:53.947Z,41.16
2019-04-09T19:21:22.828Z,40.98
2019-04-09T19:23:51.479Z,41.75
2019-04-09T19:26:20.096Z,43.50
2019-04-09T19:28:49.046Z,43.01
2019-04-09T19:31:17.698Z,42.68
2019-04-09T19:33:46.284Z,41.71
2019-04-09T19:36:14.892Z,42.60
2019-04-09T19:38:44.803Z,42.18
2019-04-09T19:41:13.683Z,41.96
2019-04-09T19:43:42.289Z,41.51
2019-04-09T19:46:12.072Z,40.60
2019-04-09T19:48:40.789Z,41.33
2019-04-09T19:51:09.396Z,42.72
2019-04-09T19:53:38.145Z,43.60
2019-04-09T19:56:06.936Z,44.44
2019-04-09T19:58:44.624Z,43.78
2019-04-09T20:01:05.973Z,42.30
2019-04-09T20:03:35.537Z,43.51
2019-04-09T20:06:05.482Z,44.37
2019-04-09T20:08:34.182Z,43.74
2019-04-09T20:11:03.359Z,41.78
2019-04-09T20:13:32.133Z,44.84
2019-04-09T20:16:00.702Z,43.21
2019-04-09T20:18:29.398Z,43.21
2019-04-09T20:20:59.099Z,43.26
2019-04-09T20:23:28.842Z,42.79
2019-04-09T20:25:57.517Z,45.83
2019-04-09T20:28:26.219Z,45.83
2019-04-09T20:30:58.686Z,42.87
2019-04-09T20:33:27.513Z,42.35
2019-04-09T20:35:56.187Z,42.65
2019-04-09T20:38:25.039Z,42.34
2019-04-09T20:40:54.775Z,42.11
2019-04-09T20:43:24.620Z,42.11
2019-04-09T20:45:53.368Z,42.58
2019-04-09T20:48:21.982Z,42.05
2019-04-09T20:50:50.600Z,42.05
2019-04-09T20:53:20.051Z,43.06
2019-04-09T20:55:48.762Z,43.06
2019-04-09T20:58:18.240Z,43.90
2019-04-09T21:01:07.113Z,43.95
2019-04-09T21:03:53.676Z,43.95
2019-04-09T21:06:39.125Z,44.09
2019-04-09T21:09:09.679Z,43.87
2019-04-09T21:11:38.480Z,43.87
2019-04-09T21:14:07.646Z,44.13
2019-04-09T21:16:36.576Z,44.13
2019-04-09T21:19:05.857Z,42.57
2019-04-09T21:21:35.157Z,42.57
2019-04-09T21:24:04.724Z,45.52
2019-04-09T21:26:34.292Z,43.38
2019-04-09T21:29:03.055Z,42.90
2019-04-09T21:31:31.674Z,42.91
2019-04-09T21:34:01.330Z,42.91
2019-04-09T21:36:31.093Z,43.45
2019-04-09T21:39:00.416Z,43.45
2019-04-09T21:41:29.035Z,42.27
2019-04-09T21:43:58.463Z,43.19
2019-04-09T21:46:29.572Z,42.13
2019-04-09T21:48:57.757Z,44.86
2019-04-09T21:51:26.399Z,43.01
2019-04-09T21:53:55.005Z,40.88
2019-04-09T21:56:23.657Z,39.77
2019-04-09T21:58:53.234Z,41.48
2019-04-09T22:01:22.992Z,42.22
2019-04-09T22:03:52.662Z,39.39
2019-04-09T22:06:27.655Z,39.56
2019-04-09T22:08:52.245Z,39.56
2019-04-09T22:11:20.979Z,40.10
2019-04-09T22:13:49.942Z,41.68
2019-04-09T22:16:18.546Z,38.82
2019-04-09T22:18:47.997Z,39.35
2019-04-09T22:21:16.646Z,38.61
2019-04-09T22:23:50.360Z,38.76
2019-04-09T22:26:15.822Z,39.10
2019-04-09T22:28:44.818Z,40.36
2019-04-09T22:31:13.445Z,39.21
2019-04-09T22:33:43.262Z,39.93
2019-04-09T22:36:11.920Z,38.93
2019-04-09T22:38:41.531Z,40.40
2019-04-09T22:41:10.304Z,39.60
2019-04-09T22:43:39.312Z,39.11
2019-04-09T22:46:07.936Z,39.01
2019-04-09T22:48:36.706Z,39.84
2019-04-09T22:51:06.401Z,40.20
2019-04-09T22:53:35.029Z,40.66
2019-04-09T22:56:04.805Z,41.19
2019-04-09T22:58:33.637Z,40.67
2019-04-09T23:01:30.659Z,39.08
2019-04-09T23:04:20.082Z,39.49
2019-04-09T23:06:59.343Z,39.39
2019-04-09T23:09:46.816Z,39.54
2019-04-09T23:12:25.848Z,39.01
2019-04-09T23:14:54.818Z,39.53
2019-04-09T23:17:23.973Z,40.30
2019-04-09T23:19:52.688Z,39.31
2019-04-09T23:22:22.292Z,39.73
2019-04-09T23:24:51.150Z,41.01
2019-04-09T23:27:19.765Z,39.98
2019-04-09T23:29:48.902Z,40.07
2019-04-09T23:32:17.526Z,40.46
2019-04-09T23:34:46.258Z,37.88
2019-04-09T23:37:15.336Z,39.53
2019-04-09T23:39:43.927Z,41.23
2019-04-09T23:42:12.825Z,41.71
2019-04-09T23:44:42.801Z,41.26
2019-04-09T23:47:11.765Z,40.24
2019-04-09T23:49:41.285Z,42.13
2019-04-09T23:52:10.243Z,40.58
2019-04-09T23:54:39.070Z,39.86
2019-04-09T23:57:08.558Z,40.61
2019-04-09T23:59:37.955Z,40.91
